Time;durP1;ratioP1;P1;durP2;ratioP2;P2;SDS_P1;SDS_P2;PMS_P1;PMS_P2;Temp;Humidity;BMP_temperature;BMP_pressure;BME280_temperature;BME280_humidity;BME280_pressure;Samples;Min_cycle;Max_cycle;Signal;HPM_P1;HPM_P2
2023/08/20 00:00:15;;;;;;;12.53;11.43;;;;;;;;;;4879312;29;21049;-68
2023/08/20 00:02:44;;;;;;;13.50;12.10;;;;;;;;;;4878678;29;20623;-68
2023/08/20 00:05:13;;;;;;;14.50;13.10;;;;;;;;;;4871722;29;20659;-68
2023/08/20 00:07:42;;;;;;;14.63;12.37;;;;;;;;;;4844738;29;20635;-68
2023/08/20 00:10:10;;;;;;;14.57;11.87;;;;;;;;;;4860885;29;20632;-68
2023/08/20 00:12:38;;;;;;;11.90;10.80;;;;;;;;;;4863446;29;20612;-68
2023/08/20 00:15:08;;;;;;;11.43;10.33;;;;;;;;;;4879542;29;20619;-68
2023/08/20 00:17:39;;;;;;;12.77;11.47;;;;;;;;;;4879625;29;20591;-68
2023/08/20 00:20:10;;;;;;;12.47;10.83;;;;;;;;;;4880033;29;20727;-68
2023/08/20 00:22:38;;;;;;;11.20;10.20;;;;;;;;;;4875339;29;20620;-68
2023/08/20 00:25:07;;;;;;;13.93;12.80;;;;;;;;;;4879057;29;20714;-68
2023/08/20 00:27:35;;;;;;;14.23;11.80;;;;;;;;;;4879122;29;20633;-68
2023/08/20 00:30:04;;;;;;;18.40;12.10;;;;;;;;;;4879601;29;20626;-68
2023/08/20 00:32:33;;;;;;;12.27;11.00;;;;;;;;;;4862391;29;20619;-68
2023/08/20 00:35:03;;;;;;;12.13;11.03;;;;;;;;;;4847504;29;20658;-68
2023/08/20 00:37:31;;;;;;;12.13;11.03;;;;;;;;;;4859905;29;20619;-69
2023/08/20 00:39:59;;;;;;;12.00;11.07;;;;;;;;;;4873671;29;20645;-68
2023/08/20 00:42:28;;;;;;;12.43;11.23;;;;;;;;;;4878217;29;20682;-68
2023/08/20 00:44:56;;;;;;;11.10;10.20;;;;;;;;;;4879163;29;20635;-70
2023/08/20 00:47:24;;;;;;;15.10;11.03;;;;;;;;;;4878894;29;20639;-68
2023/08/20 00:49:54;;;;;;;13.27;12.07;;;;;;;;;;4868991;29;20698;-68
2023/08/20 00:52:22;;;;;;;12.80;11.13;;;;;;;;;;4879099;29;20611;-70
2023/08/20 00:54:51;;;;;;;12.37;11.27;;;;;;;;;;4862391;29;20641;-68
2023/08/20 00:57:20;;;;;;;13.30;11.60;;;;;;;;;;4878278;29;20627;-68
2023/08/20 00:59:49;;;;;;;12.07;10.93;;;;;;;;;;4862101;29;20627;-68
2023/08/20 01:02:18;;;;;;;13.40;12.03;;;;;;;;;;4877083;29;20671;-68
2023/08/20 01:04:48;;;;;;;13.60;11.17;;;;;;;;;;4864529;29;21034;-68
2023/08/20 01:07:19;;;;;;;13.07;11.57;;;;;;;;;;4862650;29;20627;-68
2023/08/20 01:09:51;;;;;;;11.37;10.30;;;;;;;;;;4879146;29;20936;-68
2023/08/20 01:12:21;;;;;;;13.70;11.07;;;;;;;;;;4878533;29;20587;-68
2023/08/20 01:14:49;;;;;;;12.67;10.90;;;;;;;;;;4878964;29;20642;-68
2023/08/20 01:17:17;;;;;;;12.90;11.60;;;;;;;;;;4878445;29;20991;-68
2023/08/20 01:19:45;;;;;;;11.97;10.73;;;;;;;;;;4878837;29;20634;-68
2023/08/20 01:22:35;;;;;;;14.70;11.33;;;;;;;;;;4878494;29;20713;-68
2023/08/20 01:25:10;;;;;;;14.93;11.00;;;;;;;;;;4878078;29;21161;-68
2023/08/20 01:27:45;;;;;;;16.27;11.00;;;;;;;;;;4878423;29;20587;-68
2023/08/20 01:30:14;;;;;;;11.47;10.30;;;;;;;;;;4878573;29;20649;-68
2023/08/20 01:32:43;;;;;;;10.47;9.57;;;;;;;;;;4878108;29;20635;-68
2023/08/20 01:35:14;;;;;;;11.33;10.20;;;;;;;;;;4877935;29;21142;-68
2023/08/20 01:37:42;;;;;;;12.47;11.37;;;;;;;;;;4877955;29;20641;-68
2023/08/20 01:40:12;;;;;;;12.07;10.60;;;;;;;;;;4861623;29;20645;-68
2023/08/20 01:42:41;;;;;;;11.93;10.80;;;;;;;;;;4860889;29;21260;-70
2023/08/20 01:45:10;;;;;;;13.53;12.43;;;;;;;;;;4877496;29;20968;-68
2023/08/20 01:47:40;;;;;;;11.93;10.80;;;;;;;;;;4877599;29;20666;-68
2023/08/20 01:50:08;;;;;;;12.47;11.30;;;;;;;;;;4877878;29;20627;-70
2023/08/20 01:52:36;;;;;;;12.63;11.53;;;;;;;;;;4861167;29;20635;-69
2023/08/20 01:55:05;;;;;;;13.77;12.30;;;;;;;;;;4877702;29;20635;-68
2023/08/20 01:57:35;;;;;;;12.47;11.23;;;;;;;;;;4861423;29;20649;-68
2023/08/20 02:00:04;;;;;;;11.97;10.90;;;;;;;;;;4877146;29;20639;-68
2023/08/20 02:02:43;;;;;;;12.97;11.90;;;;;;;;;;4876732;29;20662;-68
2023/08/20 02:05:11;;;;;;;12.37;11.27;;;;;;;;;;4876247;29;21073;-68
2023/08/20 02:07:40;;;;;;;28.17;11.37;;;;;;;;;;4859847;29;20639;-68
2023/08/20 02:10:10;;;;;;;15.10;11.90;;;;;;;;;;4860095;29;20686;-68
2023/08/20 02:12:40;;;;;;;11.23;10.23;;;;;;;;;;4877325;29;20607;-68
2023/08/20 02:15:09;;;;;;;12.17;11.17;;;;;;;;;;4877179;29;20643;-68
2023/08/20 02:17:37;;;;;;;13.03;11.83;;;;;;;;;;4877560;29;20623;-68
2023/08/20 02:20:09;;;;;;;12.30;11.13;;;;;;;;;;4877232;29;20635;-68
2023/08/20 02:22:37;;;;;;;14.10;12.03;;;;;;;;;;4861144;29;20659;-68
2023/08/20 02:25:06;;;;;;;13.87;9.87;;;;;;;;;;4859163;29;20653;-68
2023/08/20 02:27:34;;;;;;;11.43;10.43;;;;;;;;;;4877485;29;20993;-68
2023/08/20 02:30:03;;;;;;;11.90;10.67;;;;;;;;;;4876836;29;20636;-68
2023/08/20 02:32:33;;;;;;;12.30;11.30;;;;;;;;;;4877726;29;20624;-68
2023/08/20 02:35:02;;;;;;;11.60;10.50;;;;;;;;;;4860156;29;21244;-68
2023/08/20 02:37:32;;;;;;;13.50;12.10;;;;;;;;;;4877522;29;20638;-68
2023/08/20 02:40:01;;;;;;;11.80;10.53;;;;;;;;;;4876987;29;20631;-68
2023/08/20 02:42:29;;;;;;;12.63;10.97;;;;;;;;;;4877127;29;20670;-68
2023/08/20 02:44:57;;;;;;;12.67;11.33;;;;;;;;;;4861687;29;20639;-66
2023/08/20 02:47:27;;;;;;;12.60;11.50;;;;;;;;;;4885397;29;20807;-66
2023/08/20 02:49:55;;;;;;;12.47;11.20;;;;;;;;;;4885151;29;20726;-69
2023/08/20 02:52:23;;;;;;;12.40;11.40;;;;;;;;;;4886186;29;20687;-67
2023/08/20 02:54:53;;;;;;;13.00;11.80;;;;;;;;;;4869893;29;20714;-66
2023/08/20 02:57:21;;;;;;;13.20;12.20;;;;;;;;;;4885854;29;20703;-67
2023/08/20 02:59:49;;;;;;;12.80;11.60;;;;;;;;;;4870103;29;20694;-66
2023/08/20 03:02:18;;;;;;;12.73;11.73;;;;;;;;;;4868754;29;20790;-67
2023/08/20 03:04:46;;;;;;;12.53;11.40;;;;;;;;;;4867526;29;20746;-66
2023/08/20 03:07:14;;;;;;;13.80;12.50;;;;;;;;;;4884082;29;20739;-66
2023/08/20 03:09:43;;;;;;;12.83;10.83;;;;;;;;;;4886361;29;20723;-66
2023/08/20 03:12:12;;;;;;;11.17;10.23;;;;;;;;;;4870215;29;20706;-66
2023/08/20 03:14:40;;;;;;;11.93;10.93;;;;;;;;;;4886997;29;20706;-66
2023/08/20 03:17:09;;;;;;;11.40;10.50;;;;;;;;;;4887759;29;20694;-66
2023/08/20 03:19:37;;;;;;;11.77;10.57;;;;;;;;;;4886720;29;20723;-66
2023/08/20 03:22:05;;;;;;;10.83;9.93;;;;;;;;;;4888967;29;20750;-66
2023/08/20 03:24:33;;;;;;;12.03;10.83;;;;;;;;;;4889971;29;20722;-66
2023/08/20 03:27:02;;;;;;;11.87;10.53;;;;;;;;;;4890119;29;20734;-66
2023/08/20 03:29:32;;;;;;;11.23;10.13;;;;;;;;;;4873006;29;20713;-66
2023/08/20 03:32:00;;;;;;;11.37;10.03;;;;;;;;;;4886795;29;20735;-67
2023/08/20 03:34:28;;;;;;;11.53;10.47;;;;;;;;;;4890068;29;21059;-67
2023/08/20 03:36:56;;;;;;;12.43;10.90;;;;;;;;;;4890377;29;20734;-66
2023/08/20 03:39:25;;;;;;;12.20;11.10;;;;;;;;;;4889691;29;20686;-67
2023/08/20 03:41:53;;;;;;;13.00;11.90;;;;;;;;;;4890337;29;20713;-67
2023/08/20 03:44:21;;;;;;;12.60;11.30;;;;;;;;;;4873605;29;20691;-67
2023/08/20 03:46:51;;;;;;;11.40;10.30;;;;;;;;;;4890522;29;20699;-67
2023/08/20 03:49:19;;;;;;;13.23;12.03;;;;;;;;;;4889589;29;20709;-66
2023/08/20 03:51:47;;;;;;;12.83;11.63;;;;;;;;;;4890169;29;20695;-66
2023/08/20 03:54:16;;;;;;;13.60;10.87;;;;;;;;;;4889826;29;20698;-67
2023/08/20 03:56:44;;;;;;;11.97;10.70;;;;;;;;;;4889893;29;20743;-66
2023/08/20 03:59:12;;;;;;;11.27;10.27;;;;;;;;;;4872431;29;21288;-66
2023/08/20 04:01:41;;;;;;;13.47;12.10;;;;;;;;;;4888478;29;21067;-66
2023/08/20 04:04:11;;;;;;;13.43;11.47;;;;;;;;;;4885239;29;20777;-67
2023/08/20 04:06:39;;;;;;;12.73;11.43;;;;;;;;;;4884978;29;20710;-67
2023/08/20 04:09:09;;;;;;;11.27;10.37;;;;;;;;;;4888638;29;20721;-67
2023/08/20 04:11:37;;;;;;;11.70;10.60;;;;;;;;;;4888704;29;20690;-67
2023/08/20 04:14:05;;;;;;;12.93;11.93;;;;;;;;;;4889339;29;20682;-66
2023/08/20 04:16:33;;;;;;;14.30;10.73;;;;;;;;;;4888888;29;20699;-67
2023/08/20 04:19:01;;;;;;;12.93;11.40;;;;;;;;;;4889242;29;20682;-67
2023/08/20 04:21:32;;;;;;;11.57;10.47;;;;;;;;;;4888455;29;20699;-67
2023/08/20 04:24:01;;;;;;;11.63;10.60;;;;;;;;;;4887285;29;20730;-67
2023/08/20 04:26:29;;;;;;;12.07;10.77;;;;;;;;;;4873356;29;20707;-67
2023/08/20 04:28:57;;;;;;;14.27;10.27;;;;;;;;;;4870817;29;20814;-67
2023/08/20 04:31:25;;;;;;;11.73;10.20;;;;;;;;;;4869007;29;20687;-67
2023/08/20 04:34:00;;;;;;;10.37;9.30;;;;;;;;;;4868496;29;20710;-68
2023/08/20 04:36:42;;;;;;;10.00;9.30;;;;;;;;;;4887222;29;21332;-67
2023/08/20 04:39:11;;;;;;;9.90;8.90;;;;;;;;;;4872440;29;20718;-67
2023/08/20 04:41:43;;;;;;;10.27;9.37;;;;;;;;;;4862091;29;20801;-67
2023/08/20 04:44:16;;;;;;;10.13;9.43;;;;;;;;;;4869864;29;21051;-67
2023/08/20 04:46:45;;;;;;;9.80;9.03;;;;;;;;;;4865310;29;20675;-67
2023/08/20 04:49:13;;;;;;;13.63;9.50;;;;;;;;;;4871989;29;20714;-66
2023/08/20 04:51:43;;;;;;;10.97;10.07;;;;;;;;;;4888250;29;20718;-67
2023/08/20 04:54:11;;;;;;;11.23;10.20;;;;;;;;;;4888933;29;20772;-66
2023/08/20 04:56:39;;;;;;;10.50;9.60;;;;;;;;;;4871135;29;21052;-67
2023/08/20 04:59:08;;;;;;;9.77;8.80;;;;;;;;;;4870631;29;20786;-67
2023/08/20 05:01:54;;;;;;;10.40;9.60;;;;;;;;;;4887566;29;20706;-68
2023/08/20 05:04:36;;;;;;;10.53;9.50;;;;;;;;;;4861187;29;20699;-68
2023/08/20 05:07:06;;;;;;;9.83;8.80;;;;;;;;;;4865692;29;20735;-67
2023/08/20 05:09:35;;;;;;;10.33;9.43;;;;;;;;;;4884551;29;20718;-67
2023/08/20 05:12:03;;;;;;;9.60;8.80;;;;;;;;;;4886908;29;20710;-67
2023/08/20 05:14:32;;;;;;;10.43;9.50;;;;;;;;;;4870657;29;21057;-67
2023/08/20 05:17:00;;;;;;;9.73;9.00;;;;;;;;;;4869498;29;21308;-67
2023/08/20 05:19:28;;;;;;;11.23;10.33;;;;;;;;;;4870868;29;20718;-67
2023/08/20 05:21:58;;;;;;;10.23;9.33;;;;;;;;;;4886998;29;20771;-67
2023/08/20 05:24:28;;;;;;;10.33;9.53;;;;;;;;;;4871202;29;20730;-67
2023/08/20 05:27:06;;;;;;;8.80;8.20;;;;;;;;;;4870858;29;20699;-67
2023/08/20 05:29:35;;;;;;;8.80;8.20;;;;;;;;;;4887493;29;20725;-69
2023/08/20 05:32:04;;;;;;;8.83;8.03;;;;;;;;;;4871380;29;20714;-67
2023/08/20 05:34:32;;;;;;;8.13;7.43;;;;;;;;;;4872196;29;20710;-67
2023/08/20 05:37:01;;;;;;;8.20;7.60;;;;;;;;;;4871522;29;20723;-67
2023/08/20 05:39:38;;;;;;;8.80;8.00;;;;;;;;;;4871589;29;20710;-67
2023/08/20 05:42:06;;;;;;;8.90;8.20;;;;;;;;;;4887814;29;20834;-66
2023/08/20 05:44:35;;;;;;;7.80;7.00;;;;;;;;;;4870519;29;20753;-67
2023/08/20 05:47:05;;;;;;;13.10;9.27;;;;;;;;;;4861085;29;20719;-67
2023/08/20 05:49:33;;;;;;;8.50;7.77;;;;;;;;;;4864817;29;20730;-67
2023/08/20 05:52:02;;;;;;;9.03;8.20;;;;;;;;;;4883913;29;21318;-66
2023/08/20 05:54:33;;;;;;;7.77;7.20;;;;;;;;;;4869649;29;20760;-66
2023/08/20 05:57:01;;;;;;;8.93;8.03;;;;;;;;;;4885885;29;21034;-66
2023/08/20 05:59:30;;;;;;;9.40;8.60;;;;;;;;;;4872744;29;20734;-68
2023/08/20 06:01:58;;;;;;;8.50;7.80;;;;;;;;;;4871006;29;20722;-70
2023/08/20 06:04:26;;;;;;;7.83;7.20;;;;;;;;;;4868056;29;20674;-70
2023/08/20 06:06:54;;;;;;;9.60;8.20;;;;;;;;;;4861140;29;20640;-70
2023/08/20 06:09:22;;;;;;;9.03;7.30;;;;;;;;;;4866346;29;20639;-70
2023/08/20 06:11:52;;;;;;;9.23;8.30;;;;;;;;;;4872106;29;20635;-70
2023/08/20 06:14:20;;;;;;;8.73;7.83;;;;;;;;;;4875801;29;20643;-70
2023/08/20 06:16:48;;;;;;;9.17;7.73;;;;;;;;;;4876641;29;21220;-70
2023/08/20 06:19:17;;;;;;;9.10;8.10;;;;;;;;;;4877187;29;21018;-70
2023/08/20 06:21:46;;;;;;;12.20;8.67;;;;;;;;;;4857134;29;20667;-70
2023/08/20 06:24:15;;;;;;;10.63;8.87;;;;;;;;;;4868281;29;20689;-70
2023/08/20 06:26:44;;;;;;;9.23;8.43;;;;;;;;;;4876655;29;20670;-70
2023/08/20 06:29:13;;;;;;;17.90;9.17;;;;;;;;;;4863630;29;20631;-70
2023/08/20 06:31:41;;;;;;;13.80;7.50;;;;;;;;;;4876858;29;20702;-70
2023/08/20 06:34:10;;;;;;;8.43;7.10;;;;;;;;;;4877256;29;20639;-70
2023/08/20 06:36:38;;;;;;;9.33;8.40;;;;;;;;;;4873820;29;20709;-70
2023/08/20 06:39:06;;;;;;;9.43;8.53;;;;;;;;;;4876703;29;20635;-70
2023/08/20 06:41:34;;;;;;;8.63;7.83;;;;;;;;;;4877056;29;20631;-70
2023/08/20 06:44:02;;;;;;;11.40;8.40;;;;;;;;;;4876461;29;20730;-71
2023/08/20 06:46:32;;;;;;;9.63;7.70;;;;;;;;;;4876703;29;20641;-70
2023/08/20 06:49:00;;;;;;;8.67;7.97;;;;;;;;;;4877010;29;20639;-70
2023/08/20 06:51:28;;;;;;;9.37;8.17;;;;;;;;;;4876635;29;20639;-70
2023/08/20 06:53:57;;;;;;;8.80;8.03;;;;;;;;;;4876769;29;20635;-70
2023/08/20 06:56:25;;;;;;;9.07;8.23;;;;;;;;;;4872927;29;20703;-70
2023/08/20 06:58:53;;;;;;;8.47;7.67;;;;;;;;;;4876664;29;20638;-70
2023/08/20 07:01:21;;;;;;;8.33;7.43;;;;;;;;;;4881990;29;21010;-70
2023/08/20 07:03:51;;;;;;;10.50;8.40;;;;;;;;;;4881225;29;20681;-70
2023/08/20 07:06:19;;;;;;;8.40;7.70;;;;;;;;;;4864606;29;20649;-70
2023/08/20 07:08:47;;;;;;;11.07;8.17;;;;;;;;;;4883077;29;20641;-70
2023/08/20 07:11:16;;;;;;;9.17;8.40;;;;;;;;;;4883742;29;20635;-68
2023/08/20 07:13:44;;;;;;;11.00;7.30;;;;;;;;;;4886837;29;20661;-68
2023/08/20 07:16:12;;;;;;;11.60;7.90;;;;;;;;;;4882760;29;20632;-70
2023/08/20 07:18:40;;;;;;;8.77;7.90;;;;;;;;;;4882518;29;20647;-70
2023/08/20 07:21:10;;;;;;;17.30;8.07;;;;;;;;;;4882880;29;20639;-70
2023/08/20 07:23:38;;;;;;;7.77;7.13;;;;;;;;;;4875790;29;20638;-70
2023/08/20 07:26:07;;;;;;;11.00;7.83;;;;;;;;;;4866993;29;20635;-70
2023/08/20 07:31:22;;;;;;;8.07;7.37;;;;;;;;;;4883405;29;20606;-70
2023/08/20 07:33:50;;;;;;;8.23;7.37;;;;;;;;;;4881343;29;20999;-70
2023/08/20 07:36:21;;;;;;;8.23;7.47;;;;;;;;;;4880950;29;20629;-70
2023/08/20 07:38:49;;;;;;;7.63;6.93;;;;;;;;;;4881721;29;20609;-70
2023/08/20 07:41:19;;;;;;;7.80;7.10;;;;;;;;;;4882351;29;20649;-70
2023/08/20 07:43:48;;;;;;;8.47;7.57;;;;;;;;;;4880471;29;20641;-68
2023/08/20 07:46:17;;;;;;;7.63;6.53;;;;;;;;;;4880186;29;20633;-69
2023/08/20 07:48:45;;;;;;;8.53;7.70;;;;;;;;;;4865948;29;20635;-70
2023/08/20 07:51:13;;;;;;;7.70;7.10;;;;;;;;;;4882378;29;20631;-70
2023/08/20 07:53:42;;;;;;;9.90;7.17;;;;;;;;;;4882695;29;20649;-70
2023/08/20 07:56:11;;;;;;;9.35;7.20;;;;;;;;;;4881365;29;20765;-70
2023/08/20 07:58:39;;;;;;;11.33;7.93;;;;;;;;;;4883091;29;20207;-68
2023/08/20 08:01:07;;;;;;;12.37;8.43;;;;;;;;;;4882274;29;20631;-68
2023/08/20 08:03:35;;;;;;;10.10;9.03;;;;;;;;;;4880332;29;20677;-70
2023/08/20 08:06:03;;;;;;;7.73;6.93;;;;;;;;;;4879388;29;20904;-70
2023/08/20 08:08:32;;;;;;;10.43;7.00;;;;;;;;;;4860633;29;20626;-69
2023/08/20 08:11:01;;;;;;;7.03;6.43;;;;;;;;;;4878366;29;20631;-69
2023/08/20 08:13:30;;;;;;;7.60;6.90;;;;;;;;;;4862221;29;20634;-69
2023/08/20 08:15:58;;;;;;;8.23;7.20;;;;;;;;;;4879589;29;20638;-69
2023/08/20 08:18:26;;;;;;;7.70;6.97;;;;;;;;;;4878380;29;20626;-69
2023/08/20 08:20:54;;;;;;;9.80;7.60;;;;;;;;;;4878962;29;20635;-69
2023/08/20 08:23:22;;;;;;;6.63;5.93;;;;;;;;;;4879475;29;20635;-70
2023/08/20 08:25:51;;;;;;;7.27;6.77;;;;;;;;;;4879369;29;20725;-70
2023/08/20 08:28:20;;;;;;;7.93;7.23;;;;;;;;;;4879061;29;20635;-71
2023/08/20 08:30:48;;;;;;;7.23;6.63;;;;;;;;;;4879436;29;20995;-69
2023/08/20 08:33:16;;;;;;;12.37;7.67;;;;;;;;;;4862290;29;21189;-70
2023/08/20 08:35:45;;;;;;;8.23;7.13;;;;;;;;;;4875356;29;20646;-70
2023/08/20 08:38:13;;;;;;;7.83;7.10;;;;;;;;;;4863251;29;20631;-70
2023/08/20 08:40:42;;;;;;;7.63;6.93;;;;;;;;;;4859776;29;20641;-70
2023/08/20 08:43:16;;;;;;;7.30;6.70;;;;;;;;;;4879693;29;20632;-71
2023/08/20 08:45:47;;;;;;;7.07;6.37;;;;;;;;;;4880012;29;20648;-71
2023/08/20 08:48:16;;;;;;;9.30;7.83;;;;;;;;;;4879081;29;20623;-71
2023/08/20 08:50:45;;;;;;;12.70;8.07;;;;;;;;;;4863828;29;20646;-71
2023/08/20 08:53:14;;;;;;;9.60;8.10;;;;;;;;;;4878841;29;20634;-71
2023/08/20 08:55:42;;;;;;;7.83;7.10;;;;;;;;;;4863537;29;21037;-70
2023/08/20 08:58:11;;;;;;;7.03;6.57;;;;;;;;;;4861976;29;21195;-72
2023/08/20 09:00:39;;;;;;;8.37;7.20;;;;;;;;;;4862951;29;20646;-71
2023/08/20 09:03:08;;;;;;;14.00;6.73;;;;;;;;;;4877152;29;20662;-71
2023/08/20 09:05:47;;;;;;;7.50;6.90;;;;;;;;;;4861016;29;20649;-71
2023/08/20 09:08:20;;;;;;;7.60;7.00;;;;;;;;;;4845520;29;20609;-70
2023/08/20 09:10:51;;;;;;;7.07;6.53;;;;;;;;;;4877055;29;20623;-71
2023/08/20 09:13:19;;;;;;;8.20;6.47;;;;;;;;;;4877557;29;20589;-70
2023/08/20 09:15:52;;;;;;;7.70;7.00;;;;;;;;;;4860418;29;20635;-70
2023/08/20 09:18:21;;;;;;;9.73;7.30;;;;;;;;;;4877527;29;20678;-70
2023/08/20 09:20:50;;;;;;;10.80;6.73;;;;;;;;;;4872456;29;20686;-69
2023/08/20 09:23:18;;;;;;;7.10;6.30;;;;;;;;;;4876826;29;20635;-69
2023/08/20 09:25:46;;;;;;;7.30;6.70;;;;;;;;;;4878468;29;21029;-69
2023/08/20 09:28:15;;;;;;;6.90;6.50;;;;;;;;;;4877651;29;20631;-69
2023/08/20 09:30:56;;;;;;;8.43;7.73;;;;;;;;;;4877810;29;21177;-69
2023/08/20 09:33:25;;;;;;;9.23;7.20;;;;;;;;;;4872912;29;21165;-69
2023/08/20 09:35:54;;;;;;;8.27;7.10;;;;;;;;;;4865859;29;20628;-69
2023/08/20 09:38:23;;;;;;;8.80;7.50;;;;;;;;;;4878182;29;20634;-70
2023/08/20 09:40:52;;;;;;;7.47;7.00;;;;;;;;;;4873294;29;20688;-69
2023/08/20 09:43:21;;;;;;;7.53;7.03;;;;;;;;;;4863008;29;20739;-70
2023/08/20 09:45:49;;;;;;;8.80;7.90;;;;;;;;;;4878124;29;20681;-69
2023/08/20 09:48:20;;;;;;;8.63;7.97;;;;;;;;;;4865910;29;21187;-69
2023/08/20 09:50:51;;;;;;;8.50;7.87;;;;;;;;;;4864609;29;20623;-70
2023/08/20 09:53:24;;;;;;;7.97;7.37;;;;;;;;;;4860481;29;20620;-69
2023/08/20 09:55:52;;;;;;;7.80;7.10;;;;;;;;;;4867825;29;20625;-69
2023/08/20 09:58:25;;;;;;;8.07;7.57;;;;;;;;;;4874754;29;20639;-69
2023/08/20 10:00:53;;;;;;;8.27;7.67;;;;;;;;;;4874541;29;21035;-69
2023/08/20 10:03:23;;;;;;;7.87;7.17;;;;;;;;;;4876724;29;21212;-70
2023/08/20 10:05:53;;;;;;;8.10;7.50;;;;;;;;;;4870880;29;20662;-69
2023/08/20 10:08:21;;;;;;;9.13;8.23;;;;;;;;;;4868789;29;20649;-70
2023/08/20 10:10:49;;;;;;;8.57;7.97;;;;;;;;;;4873958;29;21011;-70
2023/08/20 10:13:19;;;;;;;9.30;8.40;;;;;;;;;;4867738;29;20653;-70
2023/08/20 10:15:47;;;;;;;9.20;8.43;;;;;;;;;;4857189;29;20631;-70
2023/08/20 10:18:15;;;;;;;9.00;8.13;;;;;;;;;;4861644;29;20620;-70
2023/08/20 10:20:43;;;;;;;8.67;8.10;;;;;;;;;;4861534;29;20618;-70
2023/08/20 10:23:14;;;;;;;9.07;8.27;;;;;;;;;;4877811;29;20678;-70
2023/08/20 10:25:44;;;;;;;9.17;8.67;;;;;;;;;;4877672;29;20671;-70
2023/08/20 10:28:14;;;;;;;9.87;8.90;;;;;;;;;;4877388;29;20999;-70
2023/08/20 10:30:57;;;;;;;9.60;8.80;;;;;;;;;;4877352;29;20628;-70
2023/08/20 10:33:25;;;;;;;8.97;8.17;;;;;;;;;;4877408;29;20615;-70
2023/08/20 10:35:54;;;;;;;9.70;8.90;;;;;;;;;;4875518;29;20633;-70
2023/08/20 10:38:24;;;;;;;9.23;8.80;;;;;;;;;;4872894;29;20694;-70
2023/08/20 10:40:56;;;;;;;9.53;8.93;;;;;;;;;;4875587;29;20655;-69
2023/08/20 10:43:28;;;;;;;9.43;8.77;;;;;;;;;;4870714;29;20974;-69
2023/08/20 10:46:06;;;;;;;9.50;8.80;;;;;;;;;;4876981;29;20637;-69
2023/08/20 10:48:35;;;;;;;9.50;8.83;;;;;;;;;;4876754;29;20591;-69
2023/08/20 10:51:10;;;;;;;9.93;9.03;;;;;;;;;;4877129;29;20635;-70
2023/08/20 10:53:41;;;;;;;9.97;9.17;;;;;;;;;;4876492;29;20615;-70
2023/08/20 10:56:09;;;;;;;7.90;7.40;;;;;;;;;;4876760;29;20735;-69
2023/08/20 10:58:40;;;;;;;8.90;8.30;;;;;;;;;;4876501;29;20964;-70
2023/08/20 11:01:19;;;;;;;9.83;9.23;;;;;;;;;;4876731;29;21162;-69
2023/08/20 11:03:48;;;;;;;9.73;9.17;;;;;;;;;;4871481;29;20683;-70
2023/08/20 11:06:16;;;;;;;10.27;9.77;;;;;;;;;;4874764;29;20677;-70
2023/08/20 11:08:46;;;;;;;10.10;9.40;;;;;;;;;;4877030;29;20675;-69
2023/08/20 11:11:14;;;;;;;8.97;8.43;;;;;;;;;;4876729;29;20631;-69
2023/08/20 11:13:42;;;;;;;9.80;9.10;;;;;;;;;;4876666;29;20647;-70
2023/08/20 11:16:10;;;;;;;10.27;9.23;;;;;;;;;;4876827;29;20635;-70
2023/08/20 11:18:39;;;;;;;10.03;9.53;;;;;;;;;;4860879;29;20650;-70
2023/08/20 11:21:07;;;;;;;10.17;9.50;;;;;;;;;;4869294;29;20631;-70
2023/08/20 11:23:38;;;;;;;10.77;9.97;;;;;;;;;;4876337;29;20657;-70
2023/08/20 11:26:09;;;;;;;10.97;10.20;;;;;;;;;;4849441;29;20658;-70
2023/08/20 11:28:37;;;;;;;12.53;11.33;;;;;;;;;;4876665;29;20635;-70
2023/08/20 11:31:05;;;;;;;11.17;10.57;;;;;;;;;;4870820;29;20649;-70
2023/08/20 11:33:33;;;;;;;10.73;10.23;;;;;;;;;;4850313;29;20627;-70
2023/08/20 11:36:02;;;;;;;11.90;11.20;;;;;;;;;;4877377;29;20977;-70
2023/08/20 11:38:31;;;;;;;12.50;11.70;;;;;;;;;;4876288;29;20639;-70
2023/08/20 11:41:00;;;;;;;12.83;12.03;;;;;;;;;;4876325;29;20642;-70
2023/08/20 11:43:30;;;;;;;12.33;11.60;;;;;;;;;;4875423;29;20639;-70
2023/08/20 11:45:58;;;;;;;12.70;11.77;;;;;;;;;;4880430;29;20978;-70
2023/08/20 11:48:26;;;;;;;11.90;11.03;;;;;;;;;;4864509;29;20615;-70
2023/08/20 11:50:55;;;;;;;12.13;10.97;;;;;;;;;;4881193;29;20643;-70
2023/08/20 11:53:24;;;;;;;11.37;10.80;;;;;;;;;;4881145;29;20635;-70
2023/08/20 11:55:52;;;;;;;11.97;10.97;;;;;;;;;;4881484;29;20974;-70
2023/08/20 11:58:21;;;;;;;12.03;11.23;;;;;;;;;;4881243;29;20611;-70
2023/08/20 12:00:51;;;;;;;11.30;10.60;;;;;;;;;;4881576;29;20615;-70
2023/08/20 12:03:20;;;;;;;10.77;10.17;;;;;;;;;;4880909;29;20690;-70
2023/08/20 12:05:48;;;;;;;11.77;11.03;;;;;;;;;;4893648;29;20627;-70
2023/08/20 12:08:18;;;;;;;11.70;11.10;;;;;;;;;;4888220;29;21202;-69
2023/08/20 12:10:46;;;;;;;11.00;10.40;;;;;;;;;;4880556;29;20635;-69
2023/08/20 12:13:14;;;;;;;12.20;11.50;;;;;;;;;;4880177;29;20636;-70
2023/08/20 12:15:42;;;;;;;11.20;10.60;;;;;;;;;;4880892;29;20620;-69
2023/08/20 12:18:12;;;;;;;10.97;10.17;;;;;;;;;;4879956;29;20632;-69
2023/08/20 12:20:40;;;;;;;10.80;10.30;;;;;;;;;;4863963;29;20633;-69
2023/08/20 12:23:08;;;;;;;11.90;11.00;;;;;;;;;;4863601;29;20988;-69
2023/08/20 12:25:37;;;;;;;11.00;10.50;;;;;;;;;;4880688;29;20623;-69
2023/08/20 12:28:07;;;;;;;12.37;11.47;;;;;;;;;;4879645;29;20663;-69
2023/08/20 12:30:35;;;;;;;12.00;11.20;;;;;;;;;;4880113;29;20635;-68
2023/08/20 12:33:04;;;;;;;12.60;11.70;;;;;;;;;;4879777;29;20635;-69
2023/08/20 12:35:33;;;;;;;11.83;11.20;;;;;;;;;;4877090;29;20655;-69
2023/08/20 12:38:02;;;;;;;11.80;11.20;;;;;;;;;;4873942;29;20645;-69
2023/08/20 12:40:33;;;;;;;11.63;11.00;;;;;;;;;;4879445;29;20971;-69
2023/08/20 12:43:01;;;;;;;11.20;10.47;;;;;;;;;;4878978;29;20625;-69
2023/08/20 12:45:29;;;;;;;11.80;10.90;;;;;;;;;;4879335;29;20631;-69
2023/08/20 12:47:57;;;;;;;11.43;10.63;;;;;;;;;;4874483;29;20674;-69
2023/08/20 12:50:25;;;;;;;12.80;12.10;;;;;;;;;;4878445;29;20631;-68
2023/08/20 12:52:55;;;;;;;11.60;10.80;;;;;;;;;;4877741;29;20649;-69
2023/08/20 12:55:24;;;;;;;11.90;11.20;;;;;;;;;;4878577;29;20631;-69
2023/08/20 12:57:56;;;;;;;13.30;11.77;;;;;;;;;;4878538;29;20963;-69
2023/08/20 13:00:24;;;;;;;12.47;11.50;;;;;;;;;;4878898;29;20618;-69
2023/08/20 13:02:53;;;;;;;12.47;11.63;;;;;;;;;;4874893;29;20706;-69
2023/08/20 13:05:21;;;;;;;12.23;11.50;;;;;;;;;;4837164;29;20657;-69
2023/08/20 13:07:50;;;;;;;12.50;11.60;;;;;;;;;;4834944;29;20672;-69
2023/08/20 13:10:20;;;;;;;12.63;11.77;;;;;;;;;;4841898;29;20968;-69
2023/08/20 13:12:50;;;;;;;11.87;11.13;;;;;;;;;;4838552;29;20673;-69
2023/08/20 13:15:18;;;;;;;12.27;11.60;;;;;;;;;;4841158;29;20671;-69
2023/08/20 13:17:47;;;;;;;12.33;11.50;;;;;;;;;;4841385;29;20617;-69
2023/08/20 13:20:20;;;;;;;12.23;11.43;;;;;;;;;;4840781;29;20718;-69
2023/08/20 13:22:49;;;;;;;12.47;11.60;;;;;;;;;;4841117;29;20699;-69
2023/08/20 13:25:17;;;;;;;12.70;11.90;;;;;;;;;;4841522;29;21018;-69
2023/08/20 13:27:46;;;;;;;11.80;11.20;;;;;;;;;;4839780;29;20682;-69
2023/08/20 13:30:15;;;;;;;12.33;11.73;;;;;;;;;;4841795;29;21283;-69
2023/08/20 13:32:43;;;;;;;12.13;11.53;;;;;;;;;;4840918;29;20647;-69
2023/08/20 13:35:11;;;;;;;12.10;11.50;;;;;;;;;;4840952;29;20629;-69
2023/08/20 13:37:39;;;;;;;12.20;11.50;;;;;;;;;;4841033;29;20633;-69
2023/08/20 13:40:09;;;;;;;12.37;11.63;;;;;;;;;;4841378;29;20640;-69
2023/08/20 13:42:37;;;;;;;12.50;11.70;;;;;;;;;;4840288;29;21192;-69
2023/08/20 13:45:08;;;;;;;11.60;11.00;;;;;;;;;;4841753;29;20677;-69
2023/08/20 13:47:36;;;;;;;11.80;11.13;;;;;;;;;;4834836;29;20768;-69
2023/08/20 13:50:04;;;;;;;12.53;11.93;;;;;;;;;;4835783;29;20997;-69
2023/08/20 13:52:32;;;;;;;11.83;11.23;;;;;;;;;;4828702;29;20626;-70
2023/08/20 13:55:01;;;;;;;11.67;11.07;;;;;;;;;;4834862;29;20633;-69
2023/08/20 13:57:29;;;;;;;12.20;11.30;;;;;;;;;;4834158;29;20633;-69
2023/08/20 13:59:57;;;;;;;12.47;11.70;;;;;;;;;;4840947;29;20975;-69
2023/08/20 14:02:27;;;;;;;12.10;11.07;;;;;;;;;;4839310;29;20641;-68
2023/08/20 14:04:55;;;;;;;11.77;11.17;;;;;;;;;;4844885;29;20687;-69
2023/08/20 14:07:24;;;;;;;13.20;11.50;;;;;;;;;;4855851;29;20672;-68
2023/08/20 14:09:52;;;;;;;12.33;11.70;;;;;;;;;;4850100;29;20635;-69
2023/08/20 14:12:20;;;;;;;12.43;11.60;;;;;;;;;;4858354;29;20648;-69
2023/08/20 14:14:49;;;;;;;12.17;11.50;;;;;;;;;;4859448;29;20642;-69
2023/08/20 14:17:17;;;;;;;12.80;11.83;;;;;;;;;;4857908;29;20640;-69
2023/08/20 14:19:47;;;;;;;12.50;11.60;;;;;;;;;;4857621;29;21087;-69
2023/08/20 14:22:15;;;;;;;12.00;11.30;;;;;;;;;;4858678;29;20652;-69
2023/08/20 14:24:43;;;;;;;12.17;11.47;;;;;;;;;;4858807;29;20640;-69
2023/08/20 14:27:11;;;;;;;11.87;11.13;;;;;;;;;;4858833;29;20644;-69
2023/08/20 14:29:40;;;;;;;12.53;11.73;;;;;;;;;;4858392;29;20640;-69
2023/08/20 14:32:08;;;;;;;12.60;11.40;;;;;;;;;;4858301;29;20636;-69
2023/08/20 14:34:36;;;;;;;11.70;11.00;;;;;;;;;;4857939;29;20642;-69
2023/08/20 14:37:06;;;;;;;12.10;11.20;;;;;;;;;;4858392;29;20640;-69
2023/08/20 14:39:34;;;;;;;11.87;10.90;;;;;;;;;;4858649;29;20644;-69
2023/08/20 14:42:02;;;;;;;12.30;11.60;;;;;;;;;;4859670;29;20642;-69